sensor_id;sensor_type;location;lat;lon;timestamp;P1;durP1;ratioP1;P2;durP2;ratioP2
13779;SDS011;6960;53.560;9.950;2022-08-25T00:01:00;1999.90;;;999.90;;
13779;SDS011;6960;53.560;9.950;2022-08-25T00:03:26;1999.90;;;999.90;;
13779;SDS011;6960;53.560;9.950;2022-08-25T00:05:52;1999.90;;;999.90;;
13779;SDS011;6960;53.560;9.950;2022-08-25T00:08:18;1999.90;;;999.90;;
13779;SDS011;6960;53.560;9.950;2022-08-25T00:10:44;1999.90;;;999.90;;
13779;SDS011;6960;53.560;9.950;2022-08-25T00:13:10;1999.90;;;999.90;;
13779;SDS011;6960;53.560;9.950;2022-08-25T00:15:36;1999.90;;;999.90;;
13779;SDS011;6960;53.560;9.950;2022-08-25T00:18:03;1999.90;;;999.90;;
13779;SDS011;6960;53.560;9.950;2022-08-25T00:20:29;1999.90;;;999.90;;
13779;SDS011;6960;53.560;9.950;2022-08-25T00:22:55;1999.90;;;999.90;;
13779;SDS011;6960;53.560;9.950;2022-08-25T00:25:22;1999.90;;;999.90;;
13779;SDS011;6960;53.560;9.950;2022-08-25T00:27:49;1999.90;;;999.90;;
13779;SDS011;6960;53.560;9.950;2022-08-25T00:30:16;1999.90;;;999.90;;
13779;SDS011;6960;53.560;9.950;2022-08-25T00:32:42;1999.90;;;999.90;;
13779;SDS011;6960;53.560;9.950;2022-08-25T00:35:08;1999.90;;;999.90;;
13779;SDS011;6960;53.560;9.950;2022-08-25T00:37:34;1999.90;;;999.90;;
13779;SDS011;6960;53.560;9.950;2022-08-25T00:40:01;1999.90;;;999.90;;
13779;SDS011;6960;53.560;9.950;2022-08-25T00:42:27;1999.90;;;999.90;;
13779;SDS011;6960;53.560;9.950;2022-08-25T00:44:53;1999.90;;;999.90;;
13779;SDS011;6960;53.560;9.950;2022-08-25T00:47:19;1999.90;;;999.90;;
13779;SDS011;6960;53.560;9.950;2022-08-25T00:49:46;1999.90;;;999.90;;
13779;SDS011;6960;53.560;9.950;2022-08-25T00:52:21;1999.90;;;999.90;;
13779;SDS011;6960;53.560;9.950;2022-08-25T00:57:14;1999.90;;;999.90;;
13779;SDS011;6960;53.560;9.950;2022-08-25T00:59:41;1999.90;;;999.90;;
13779;SDS011;6960;53.560;9.950;2022-08-25T01:02:08;1999.90;;;999.90;;
13779;SDS011;6960;53.560;9.950;2022-08-25T01:04:34;1999.90;;;999.90;;
13779;SDS011;6960;53.560;9.950;2022-08-25T01:07:01;1999.90;;;999.90;;
13779;SDS011;6960;53.560;9.950;2022-08-25T01:09:29;1999.90;;;999.90;;
13779;SDS011;6960;53.560;9.950;2022-08-25T01:11:56;1999.90;;;999.90;;
13779;SDS011;6960;53.560;9.950;2022-08-25T01:14:22;1999.90;;;999.90;;
13779;SDS011;6960;53.560;9.950;2022-08-25T01:16:49;1999.90;;;999.90;;
13779;SDS011;6960;53.560;9.950;2022-08-25T01:19:15;1999.90;;;999.90;;
13779;SDS011;6960;53.560;9.950;2022-08-25T01:21:43;1999.90;;;999.90;;
13779;SDS011;6960;53.560;9.950;2022-08-25T01:24:10;1999.90;;;999.90;;
13779;SDS011;6960;53.560;9.950;2022-08-25T01:26:38;1999.90;;;999.90;;
13779;SDS011;6960;53.560;9.950;2022-08-25T01:29:05;1999.90;;;999.90;;
13779;SDS011;6960;53.560;9.950;2022-08-25T01:31:49;1999.90;;;999.90;;
13779;SDS011;6960;53.560;9.950;2022-08-25T01:34:16;1999.90;;;999.90;;
13779;SDS011;6960;53.560;9.950;2022-08-25T01:36:42;1999.90;;;999.90;;
13779;SDS011;6960;53.560;9.950;2022-08-25T01:39:09;1999.90;;;999.90;;
13779;SDS011;6960;53.560;9.950;2022-08-25T01:44:04;1999.90;;;999.90;;
13779;SDS011;6960;53.560;9.950;2022-08-25T01:46:31;1999.90;;;999.90;;
13779;SDS011;6960;53.560;9.950;2022-08-25T01:48:58;1999.90;;;999.90;;
13779;SDS011;6960;53.560;9.950;2022-08-25T01:51:24;1999.90;;;999.90;;
13779;SDS011;6960;53.560;9.950;2022-08-25T01:53:52;1999.90;;;999.90;;
13779;SDS011;6960;53.560;9.950;2022-08-25T01:56:18;1999.90;;;999.90;;
13779;SDS011;6960;53.560;9.950;2022-08-25T01:58:45;1999.90;;;999.90;;
13779;SDS011;6960;53.560;9.950;2022-08-25T02:01:21;1999.90;;;999.90;;
13779;SDS011;6960;53.560;9.950;2022-08-25T02:03:49;1999.90;;;999.90;;
13779;SDS011;6960;53.560;9.950;2022-08-25T02:06:17;1999.90;;;999.90;;
13779;SDS011;6960;53.560;9.950;2022-08-25T02:08:44;1999.90;;;999.90;;
13779;SDS011;6960;53.560;9.950;2022-08-25T02:11:13;1999.90;;;999.90;;
13779;SDS011;6960;53.560;9.950;2022-08-25T02:13:39;1999.90;;;999.90;;
13779;SDS011;6960;53.560;9.950;2022-08-25T02:16:06;1999.90;;;999.90;;
13779;SDS011;6960;53.560;9.950;2022-08-25T02:18:33;1999.90;;;999.90;;
13779;SDS011;6960;53.560;9.950;2022-08-25T02:20:59;1999.90;;;999.90;;
13779;SDS011;6960;53.560;9.950;2022-08-25T02:23:25;1999.90;;;999.90;;
13779;SDS011;6960;53.560;9.950;2022-08-25T02:25:52;1999.90;;;999.90;;
13779;SDS011;6960;53.560;9.950;2022-08-25T02:28:18;1999.90;;;999.90;;
13779;SDS011;6960;53.560;9.950;2022-08-25T02:30:44;1999.90;;;999.90;;
13779;SDS011;6960;53.560;9.950;2022-08-25T02:33:11;1999.90;;;999.90;;
13779;SDS011;6960;53.560;9.950;2022-08-25T02:35:37;1999.90;;;999.90;;
13779;SDS011;6960;53.560;9.950;2022-08-25T02:38:03;1999.90;;;999.90;;
13779;SDS011;6960;53.560;9.950;2022-08-25T02:40:29;1999.90;;;999.90;;
13779;SDS011;6960;53.560;9.950;2022-08-25T02:42:55;1999.90;;;999.90;;
13779;SDS011;6960;53.560;9.950;2022-08-25T02:45:22;1999.90;;;999.90;;
13779;SDS011;6960;53.560;9.950;2022-08-25T02:47:48;1999.90;;;999.90;;
13779;SDS011;6960;53.560;9.950;2022-08-25T02:50:14;1999.90;;;999.90;;
13779;SDS011;6960;53.560;9.950;2022-08-25T02:52:40;1999.90;;;999.90;;
13779;SDS011;6960;53.560;9.950;2022-08-25T02:55:07;1999.90;;;999.90;;
13779;SDS011;6960;53.560;9.950;2022-08-25T02:57:33;1999.90;;;999.90;;
13779;SDS011;6960;53.560;9.950;2022-08-25T03:00:00;1999.90;;;999.90;;
13779;SDS011;6960;53.560;9.950;2022-08-25T03:02:26;1999.90;;;999.90;;
13779;SDS011;6960;53.560;9.950;2022-08-25T03:04:52;1999.90;;;999.90;;
13779;SDS011;6960;53.560;9.950;2022-08-25T03:07:19;1999.90;;;999.90;;
13779;SDS011;6960;53.560;9.950;2022-08-25T03:09:46;1999.90;;;999.90;;
13779;SDS011;6960;53.560;9.950;2022-08-25T03:12:12;1999.90;;;999.90;;
13779;SDS011;6960;53.560;9.950;2022-08-25T03:14:38;1999.90;;;999.90;;
13779;SDS011;6960;53.560;9.950;2022-08-25T03:17:05;1999.90;;;999.90;;
13779;SDS011;6960;53.560;9.950;2022-08-25T03:19:32;1999.90;;;999.90;;
13779;SDS011;6960;53.560;9.950;2022-08-25T03:21:58;1999.90;;;999.90;;
13779;SDS011;6960;53.560;9.950;2022-08-25T03:24:24;1999.90;;;999.90;;
13779;SDS011;6960;53.560;9.950;2022-08-25T03:26:51;1999.90;;;999.90;;
13779;SDS011;6960;53.560;9.950;2022-08-25T03:29:27;1999.90;;;999.90;;
13779;SDS011;6960;53.560;9.950;2022-08-25T03:31:53;1999.90;;;999.90;;
13779;SDS011;6960;53.560;9.950;2022-08-25T03:34:22;1999.90;;;999.90;;
13779;SDS011;6960;53.560;9.950;2022-08-25T03:36:49;1999.90;;;999.90;;
13779;SDS011;6960;53.560;9.950;2022-08-25T03:39:15;1999.90;;;999.90;;
13779;SDS011;6960;53.560;9.950;2022-08-25T03:41:41;1999.90;;;999.90;;
13779;SDS011;6960;53.560;9.950;2022-08-25T03:44:08;1999.90;;;999.90;;
13779;SDS011;6960;53.560;9.950;2022-08-25T03:46:38;1999.90;;;999.90;;
13779;SDS011;6960;53.560;9.950;2022-08-25T03:49:05;1999.90;;;999.90;;
13779;SDS011;6960;53.560;9.950;2022-08-25T03:51:33;1999.90;;;999.90;;
13779;SDS011;6960;53.560;9.950;2022-08-25T03:54:00;1999.90;;;999.90;;
13779;SDS011;6960;53.560;9.950;2022-08-25T03:56:26;1999.90;;;999.90;;
13779;SDS011;6960;53.560;9.950;2022-08-25T03:58:52;1999.90;;;999.90;;
13779;SDS011;6960;53.560;9.950;2022-08-25T04:01:19;1999.90;;;999.90;;
13779;SDS011;6960;53.560;9.950;2022-08-25T04:03:45;1999.90;;;999.90;;
13779;SDS011;6960;53.560;9.950;2022-08-25T04:06:11;1999.90;;;999.90;;
13779;SDS011;6960;53.560;9.950;2022-08-25T04:08:38;1999.90;;;999.90;;
13779;SDS011;6960;53.560;9.950;2022-08-25T04:11:08;1999.90;;;999.90;;
13779;SDS011;6960;53.560;9.950;2022-08-25T04:13:34;1999.90;;;999.90;;
13779;SDS011;6960;53.560;9.950;2022-08-25T04:16:01;1999.90;;;999.90;;
13779;SDS011;6960;53.560;9.950;2022-08-25T04:18:27;1999.90;;;999.90;;
13779;SDS011;6960;53.560;9.950;2022-08-25T04:21:00;1999.90;;;999.90;;
13779;SDS011;6960;53.560;9.950;2022-08-25T04:23:26;1999.90;;;999.90;;
13779;SDS011;6960;53.560;9.950;2022-08-25T04:25:52;1999.90;;;999.90;;
13779;SDS011;6960;53.560;9.950;2022-08-25T04:28:19;1999.90;;;999.90;;
13779;SDS011;6960;53.560;9.950;2022-08-25T04:30:44;1999.90;;;999.90;;
13779;SDS011;6960;53.560;9.950;2022-08-25T04:33:10;1999.90;;;999.90;;
13779;SDS011;6960;53.560;9.950;2022-08-25T04:35:37;1999.90;;;999.90;;
13779;SDS011;6960;53.560;9.950;2022-08-25T04:38:05;1999.90;;;999.90;;
13779;SDS011;6960;53.560;9.950;2022-08-25T04:40:31;1999.90;;;999.90;;
13779;SDS011;6960;53.560;9.950;2022-08-25T04:42:57;1999.90;;;999.90;;
13779;SDS011;6960;53.560;9.950;2022-08-25T04:45:23;1999.90;;;999.90;;
13779;SDS011;6960;53.560;9.950;2022-08-25T04:47:49;1999.90;;;999.90;;
13779;SDS011;6960;53.560;9.950;2022-08-25T04:50:15;1999.90;;;999.90;;
13779;SDS011;6960;53.560;9.950;2022-08-25T04:52:41;1999.90;;;999.90;;
13779;SDS011;6960;53.560;9.950;2022-08-25T04:55:07;1999.90;;;999.90;;
13779;SDS011;6960;53.560;9.950;2022-08-25T04:57:33;1999.90;;;999.90;;
13779;SDS011;6960;53.560;9.950;2022-08-25T04:59:59;1999.90;;;999.90;;
13779;SDS011;6960;53.560;9.950;2022-08-25T05:02:26;1999.90;;;999.90;;
13779;SDS011;6960;53.560;9.950;2022-08-25T05:04:52;1999.90;;;999.90;;
13779;SDS011;6960;53.560;9.950;2022-08-25T05:07:19;1999.90;;;999.90;;
13779;SDS011;6960;53.560;9.950;2022-08-25T05:09:45;1999.90;;;999.90;;
13779;SDS011;6960;53.560;9.950;2022-08-25T05:12:11;1999.90;;;999.90;;
13779;SDS011;6960;53.560;9.950;2022-08-25T05:14:37;1999.90;;;999.90;;
13779;SDS011;6960;53.560;9.950;2022-08-25T05:17:04;1999.90;;;999.90;;
13779;SDS011;6960;53.560;9.950;2022-08-25T05:19:31;1999.90;;;999.90;;
13779;SDS011;6960;53.560;9.950;2022-08-25T05:21:57;1999.90;;;999.90;;
13779;SDS011;6960;53.560;9.950;2022-08-25T05:24:24;1999.90;;;999.90;;
13779;SDS011;6960;53.560;9.950;2022-08-25T05:26:50;1999.90;;;999.90;;
13779;SDS011;6960;53.560;9.950;2022-08-25T05:29:16;1999.90;;;999.90;;
13779;SDS011;6960;53.560;9.950;2022-08-25T05:31:43;1999.90;;;999.90;;
13779;SDS011;6960;53.560;9.950;2022-08-25T05:34:09;1999.90;;;999.90;;
13779;SDS011;6960;53.560;9.950;2022-08-25T05:36:36;1999.90;;;999.90;;
13779;SDS011;6960;53.560;9.950;2022-08-25T05:39:07;1999.90;;;999.90;;
13779;SDS011;6960;53.560;9.950;2022-08-25T05:41:33;1999.90;;;999.90;;
13779;SDS011;6960;53.560;9.950;2022-08-25T05:43:59;1999.90;;;999.90;;
13779;SDS011;6960;53.560;9.950;2022-08-25T05:46:25;1999.90;;;999.90;;
13779;SDS011;6960;53.560;9.950;2022-08-25T05:48:52;1999.90;;;999.90;;
13779;SDS011;6960;53.560;9.950;2022-08-25T05:51:18;1999.90;;;999.90;;
13779;SDS011;6960;53.560;9.950;2022-08-25T05:53:45;1999.90;;;999.90;;
13779;SDS011;6960;53.560;9.950;2022-08-25T05:56:12;1999.90;;;999.90;;
13779;SDS011;6960;53.560;9.950;2022-08-25T05:58:38;1999.90;;;999.90;;
13779;SDS011;6960;53.560;9.950;2022-08-25T06:01:05;1999.90;;;999.90;;
13779;SDS011;6960;53.560;9.950;2022-08-25T06:04:03;1999.90;;;999.90;;
13779;SDS011;6960;53.560;9.950;2022-08-25T06:06:30;1999.90;;;999.90;;
13779;SDS011;6960;53.560;9.950;2022-08-25T06:08:56;1999.90;;;999.90;;
13779;SDS011;6960;53.560;9.950;2022-08-25T06:11:22;1999.90;;;999.90;;
13779;SDS011;6960;53.560;9.950;2022-08-25T06:13:48;1999.90;;;999.90;;
13779;SDS011;6960;53.560;9.950;2022-08-25T06:16:14;1999.90;;;999.90;;
13779;SDS011;6960;53.560;9.950;2022-08-25T06:18:40;1999.90;;;999.90;;
13779;SDS011;6960;53.560;9.950;2022-08-25T06:21:07;1999.90;;;999.90;;
13779;SDS011;6960;53.560;9.950;2022-08-25T06:23:33;1999.90;;;999.90;;
13779;SDS011;6960;53.560;9.950;2022-08-25T06:25:59;1999.90;;;999.90;;
13779;SDS011;6960;53.560;9.950;2022-08-25T06:28:25;1999.90;;;999.90;;
13779;SDS011;6960;53.560;9.950;2022-08-25T06:30:56;1999.90;;;999.90;;
13779;SDS011;6960;53.560;9.950;2022-08-25T06:33:22;1999.90;;;999.90;;
13779;SDS011;6960;53.560;9.950;2022-08-25T06:35:48;1999.90;;;999.90;;
13779;SDS011;6960;53.560;9.950;2022-08-25T06:38:17;1999.90;;;999.90;;
13779;SDS011;6960;53.560;9.950;2022-08-25T06:40:45;1999.90;;;999.90;;
13779;SDS011;6960;53.560;9.950;2022-08-25T06:43:11;1999.90;;;999.90;;
13779;SDS011;6960;53.560;9.950;2022-08-25T06:45:37;1999.90;;;999.90;;
13779;SDS011;6960;53.560;9.950;2022-08-25T06:48:03;1999.90;;;999.90;;
13779;SDS011;6960;53.560;9.950;2022-08-25T06:50:29;1999.90;;;999.90;;
13779;SDS011;6960;53.560;9.950;2022-08-25T06:52:55;1999.90;;;999.90;;
13779;SDS011;6960;53.560;9.950;2022-08-25T06:55:21;1999.90;;;999.90;;
13779;SDS011;6960;53.560;9.950;2022-08-25T06:57:47;1999.90;;;999.90;;
13779;SDS011;6960;53.560;9.950;2022-08-25T07:00:16;1999.90;;;999.90;;
13779;SDS011;6960;53.560;9.950;2022-08-25T07:02:42;1999.90;;;999.90;;
13779;SDS011;6960;53.560;9.950;2022-08-25T07:05:08;1999.90;;;999.90;;
13779;SDS011;6960;53.560;9.950;2022-08-25T07:07:35;1999.90;;;999.90;;
13779;SDS011;6960;53.560;9.950;2022-08-25T07:10:01;1999.90;;;999.90;;
13779;SDS011;6960;53.560;9.950;2022-08-25T07:12:27;1999.90;;;999.90;;
13779;SDS011;6960;53.560;9.950;2022-08-25T07:14:53;1999.90;;;999.90;;
13779;SDS011;6960;53.560;9.950;2022-08-25T07:17:20;1999.90;;;999.90;;
13779;SDS011;6960;53.560;9.950;2022-08-25T07:19:47;1999.90;;;999.90;;
13779;SDS011;6960;53.560;9.950;2022-08-25T07:22:13;1999.90;;;999.90;;
13779;SDS011;6960;53.560;9.950;2022-08-25T07:24:39;1999.90;;;999.90;;
13779;SDS011;6960;53.560;9.950;2022-08-25T07:27:05;1999.90;;;999.90;;
13779;SDS011;6960;53.560;9.950;2022-08-25T07:29:31;1999.90;;;999.90;;
13779;SDS011;6960;53.560;9.950;2022-08-25T07:32:01;1999.90;;;999.90;;
13779;SDS011;6960;53.560;9.950;2022-08-25T07:34:27;1999.90;;;999.90;;
13779;SDS011;6960;53.560;9.950;2022-08-25T07:37:12;1999.90;;;999.90;;
13779;SDS011;6960;53.560;9.950;2022-08-25T07:39:37;1999.90;;;999.90;;
13779;SDS011;6960;53.560;9.950;2022-08-25T07:42:04;1999.90;;;999.90;;
13779;SDS011;6960;53.560;9.950;2022-08-25T07:44:30;1999.90;;;999.90;;
13779;SDS011;6960;53.560;9.950;2022-08-25T07:46:56;1999.90;;;999.90;;
13779;SDS011;6960;53.560;9.950;2022-08-25T07:49:22;1999.90;;;999.90;;
13779;SDS011;6960;53.560;9.950;2022-08-25T07:51:49;1999.90;;;999.90;;
13779;SDS011;6960;53.560;9.950;2022-08-25T07:54:15;1999.90;;;999.90;;
13779;SDS011;6960;53.560;9.950;2022-08-25T07:56:42;1999.90;;;999.90;;
13779;SDS011;6960;53.560;9.950;2022-08-25T07:59:08;1999.90;;;999.90;;
13779;SDS011;6960;53.560;9.950;2022-08-25T08:01:35;1999.90;;;999.90;;
13779;SDS011;6960;53.560;9.950;2022-08-25T08:04:01;1999.90;;;999.90;;
13779;SDS011;6960;53.560;9.950;2022-08-25T08:06:27;1999.90;;;999.90;;
13779;SDS011;6960;53.560;9.950;2022-08-25T08:08:54;1999.90;;;999.90;;
13779;SDS011;6960;53.560;9.950;2022-08-25T08:11:25;1999.90;;;999.90;;
13779;SDS011;6960;53.560;9.950;2022-08-25T08:13:52;1999.90;;;999.90;;
13779;SDS011;6960;53.560;9.950;2022-08-25T08:16:19;1999.90;;;999.90;;
13779;SDS011;6960;53.560;9.950;2022-08-25T08:18:45;1999.90;;;999.90;;
13779;SDS011;6960;53.560;9.950;2022-08-25T08:21:12;1999.90;;;999.90;;
13779;SDS011;6960;53.560;9.950;2022-08-25T08:23:38;1999.90;;;999.90;;
13779;SDS011;6960;53.560;9.950;2022-08-25T08:26:04;1999.90;;;999.90;;
13779;SDS011;6960;53.560;9.950;2022-08-25T08:28:30;1999.90;;;999.90;;
13779;SDS011;6960;53.560;9.950;2022-08-25T08:30:56;1999.90;;;999.90;;
13779;SDS011;6960;53.560;9.950;2022-08-25T08:33:22;1999.90;;;999.90;;
13779;SDS011;6960;53.560;9.950;2022-08-25T08:35:56;1999.90;;;999.90;;
13779;SDS011;6960;53.560;9.950;2022-08-25T08:38:22;1999.90;;;999.90;;
13779;SDS011;6960;53.560;9.950;2022-08-25T08:40:59;1999.90;;;999.90;;
13779;SDS011;6960;53.560;9.950;2022-08-25T08:43:46;1999.90;;;999.90;;
13779;SDS011;6960;53.560;9.950;2022-08-25T08:46:15;1999.90;;;999.90;;
13779;SDS011;6960;53.560;9.950;2022-08-25T08:49:16;1999.90;;;999.90;;
13779;SDS011;6960;53.560;9.950;2022-08-25T08:51:35;1999.90;;;999.90;;
13779;SDS011;6960;53.560;9.950;2022-08-25T08:54:08;1999.90;;;999.90;;
13779;SDS011;6960;53.560;9.950;2022-08-25T08:56:39;1999.90;;;999.90;;
13779;SDS011;6960;53.560;9.950;2022-08-25T08:59:25;1999.90;;;999.90;;
13779;SDS011;6960;53.560;9.950;2022-08-25T09:01:57;1999.90;;;999.90;;
13779;SDS011;6960;53.560;9.950;2022-08-25T09:04:26;1999.90;;;999.90;;
13779;SDS011;6960;53.560;9.950;2022-08-25T09:06:54;1999.90;;;999.90;;
13779;SDS011;6960;53.560;9.950;2022-08-25T09:09:29;1999.90;;;999.90;;
13779;SDS011;6960;53.560;9.950;2022-08-25T09:27:16;1999.90;;;999.90;;
13779;SDS011;6960;53.560;9.950;2022-08-25T09:29:54;1999.90;;;999.90;;
13779;SDS011;6960;53.560;9.950;2022-08-25T09:32:22;1999.90;;;999.90;;
13779;SDS011;6960;53.560;9.950;2022-08-25T09:34:49;1999.90;;;999.90;;
13779;SDS011;6960;53.560;9.950;2022-08-25T09:37:16;1999.90;;;999.90;;
13779;SDS011;6960;53.560;9.950;2022-08-25T09:39:43;1999.90;;;999.90;;
13779;SDS011;6960;53.560;9.950;2022-08-25T09:42:08;1999.90;;;999.90;;
13779;SDS011;6960;53.560;9.950;2022-08-25T09:44:41;1999.90;;;999.90;;
13779;SDS011;6960;53.560;9.950;2022-08-25T09:49:44;1999.90;;;999.90;;
13779;SDS011;6960;53.560;9.950;2022-08-25T09:55:01;1999.90;;;999.90;;
13779;SDS011;6960;53.560;9.950;2022-08-25T10:00:10;1999.90;;;999.90;;
13779;SDS011;6960;53.560;9.950;2022-08-25T10:02:37;1999.90;;;999.90;;
13779;SDS011;6960;53.560;9.950;2022-08-25T10:05:16;1999.90;;;999.90;;
13779;SDS011;6960;53.560;9.950;2022-08-25T10:07:48;1999.90;;;999.90;;
13779;SDS011;6960;53.560;9.950;2022-08-25T10:10:16;1999.90;;;999.90;;
13779;SDS011;6960;53.560;9.950;2022-08-25T10:12:43;1999.90;;;999.90;;
13779;SDS011;6960;53.560;9.950;2022-08-25T10:15:22;1999.90;;;999.90;;
13779;SDS011;6960;53.560;9.950;2022-08-25T10:17:49;1999.90;;;999.90;;
13779;SDS011;6960;53.560;9.950;2022-08-25T10:20:18;1999.90;;;999.90;;
13779;SDS011;6960;53.560;9.950;2022-08-25T10:22:45;1999.90;;;999.90;;
13779;SDS011;6960;53.560;9.950;2022-08-25T10:25:13;1999.90;;;999.90;;
13779;SDS011;6960;53.560;9.950;2022-08-25T10:28:03;1999.90;;;999.90;;
13779;SDS011;6960;53.560;9.950;2022-08-25T10:30:48;1999.90;;;999.90;;
13779;SDS011;6960;53.560;9.950;2022-08-25T10:33:23;1999.90;;;999.90;;
13779;SDS011;6960;53.560;9.950;2022-08-25T10:40:58;1999.90;;;999.90;;
13779;SDS011;6960;53.560;9.950;2022-08-25T10:46:03;1999.90;;;999.90;;
13779;SDS011;6960;53.560;9.950;2022-08-25T10:48:38;1999.90;;;999.90;;
13779;SDS011;6960;53.560;9.950;2022-08-25T10:51:15;1999.90;;;999.90;;
13779;SDS011;6960;53.560;9.950;2022-08-25T10:56:22;1999.90;;;999.90;;
13779;SDS011;6960;53.560;9.950;2022-08-25T11:01:38;1999.90;;;999.90;;
13779;SDS011;6960;53.560;9.950;2022-08-25T11:04:07;1999.90;;;999.90;;
13779;SDS011;6960;53.560;9.950;2022-08-25T11:06:40;1999.90;;;999.90;;
13779;SDS011;6960;53.560;9.950;2022-08-25T11:09:07;1999.90;;;999.90;;
13779;SDS011;6960;53.560;9.950;2022-08-25T11:19:44;1999.90;;;999.90;;
13779;SDS011;6960;53.560;9.950;2022-08-25T11:22:14;1999.90;;;999.90;;
13779;SDS011;6960;53.560;9.950;2022-08-25T11:24:44;1999.90;;;999.90;;
13779;SDS011;6960;53.560;9.950;2022-08-25T11:27:33;1999.90;;;999.90;;
13779;SDS011;6960;53.560;9.950;2022-08-25T11:30:05;1999.90;;;999.90;;
13779;SDS011;6960;53.560;9.950;2022-08-25T11:32:32;1999.90;;;999.90;;
13779;SDS011;6960;53.560;9.950;2022-08-25T11:35:01;1999.90;;;999.90;;
13779;SDS011;6960;53.560;9.950;2022-08-25T11:37:27;1999.90;;;999.90;;
13779;SDS011;6960;53.560;9.950;2022-08-25T11:45:11;1999.90;;;999.90;;
13779;SDS011;6960;53.560;9.950;2022-08-25T11:50:31;1999.90;;;999.90;;
13779;SDS011;6960;53.560;9.950;2022-08-25T11:55:28;490.73;;;470.70;;
13779;SDS011;6960;53.560;9.950;2022-08-25T12:00:41;328.70;;;317.45;;
13779;SDS011;6960;53.560;9.950;2022-08-25T12:06:13;491.98;;;473.15;;
13779;SDS011;6960;53.560;9.950;2022-08-25T12:08:52;726.75;;;693.70;;
13779;SDS011;6960;53.560;9.950;2022-08-25T12:29:44;1999.90;;;999.90;;
13779;SDS011;6960;53.560;9.950;2022-08-25T12:32:28;965.60;;;906.28;;
13779;SDS011;6960;53.560;9.950;2022-08-25T12:37:23;978.72;;;918.55;;
13779;SDS011;6960;53.560;9.950;2022-08-25T12:47:41;969.72;;;909.38;;
13779;SDS011;6960;53.560;9.950;2022-08-25T12:52:53;888.78;;;839.30;;
13779;SDS011;6960;53.560;9.950;2022-08-25T12:55:20;928.53;;;873.25;;
13779;SDS011;6960;53.560;9.950;2022-08-25T12:57:51;1999.90;;;999.90;;
13779;SDS011;6960;53.560;9.950;2022-08-25T13:02:52;810.28;;;769.90;;
13779;SDS011;6960;53.560;9.950;2022-08-25T13:10:47;874.90;;;826.20;;
13779;SDS011;6960;53.560;9.950;2022-08-25T13:13:37;802.13;;;756.30;;
13779;SDS011;6960;53.560;9.950;2022-08-25T13:16:05;1999.90;;;999.90;;
13779;SDS011;6960;53.560;9.950;2022-08-25T13:18:36;1999.90;;;999.90;;
13779;SDS011;6960;53.560;9.950;2022-08-25T13:21:05;1999.90;;;999.90;;
13779;SDS011;6960;53.560;9.950;2022-08-25T13:23:36;1999.90;;;999.90;;
13779;SDS011;6960;53.560;9.950;2022-08-25T13:26:02;1999.90;;;999.90;;
13779;SDS011;6960;53.560;9.950;2022-08-25T13:28:29;1999.90;;;999.90;;
13779;SDS011;6960;53.560;9.950;2022-08-25T13:31:03;1999.90;;;999.90;;
13779;SDS011;6960;53.560;9.950;2022-08-25T13:33:29;1999.90;;;999.90;;
13779;SDS011;6960;53.560;9.950;2022-08-25T13:35:57;775.40;;;737.03;;
13779;SDS011;6960;53.560;9.950;2022-08-25T13:38:43;837.20;;;790.63;;
13779;SDS011;6960;53.560;9.950;2022-08-25T13:41:09;745.55;;;708.65;;
13779;SDS011;6960;53.560;9.950;2022-08-25T13:43:36;1434.28;;;911.17;;
13779;SDS011;6960;53.560;9.950;2022-08-25T13:46:03;413.67;;;394.75;;
13779;SDS011;6960;53.560;9.950;2022-08-25T13:48:34;1999.90;;;999.90;;
13779;SDS011;6960;53.560;9.950;2022-08-25T13:51:20;1999.90;;;999.90;;
13779;SDS011;6960;53.560;9.950;2022-08-25T13:53:48;1999.90;;;999.90;;
13779;SDS011;6960;53.560;9.950;2022-08-25T13:56:21;889.50;;;841.55;;
13779;SDS011;6960;53.560;9.950;2022-08-25T13:58:48;656.28;;;627.15;;
13779;SDS011;6960;53.560;9.950;2022-08-25T14:01:16;1999.90;;;999.90;;
13779;SDS011;6960;53.560;9.950;2022-08-25T14:03:45;600.30;;;573.60;;
13779;SDS011;6960;53.560;9.950;2022-08-25T14:08:44;748.75;;;713.03;;
13779;SDS011;6960;53.560;9.950;2022-08-25T14:14:02;699.08;;;668.05;;
13779;SDS011;6960;53.560;9.950;2022-08-25T14:16:36;768.83;;;732.20;;
13779;SDS011;6960;53.560;9.950;2022-08-25T14:19:03;601.67;;;576.63;;
13779;SDS011;6960;53.560;9.950;2022-08-25T14:21:30;726.17;;;693.28;;
13779;SDS011;6960;53.560;9.950;2022-08-25T14:23:56;737.20;;;703.35;;
13779;SDS011;6960;53.560;9.950;2022-08-25T14:26:23;696.25;;;664.35;;
13779;SDS011;6960;53.560;9.950;2022-08-25T14:28:49;725.40;;;691.47;;
13779;SDS011;6960;53.560;9.950;2022-08-25T14:33:51;550.88;;;528.72;;
13779;SDS011;6960;53.560;9.950;2022-08-25T14:36:18;805.80;;;764.13;;
13779;SDS011;6960;53.560;9.950;2022-08-25T14:38:44;787.90;;;749.70;;
13779;SDS011;6960;53.560;9.950;2022-08-25T14:41:10;740.10;;;703.72;;
13779;SDS011;6960;53.560;9.950;2022-08-25T14:43:36;692.80;;;659.53;;
13779;SDS011;6960;53.560;9.950;2022-08-25T14:46:06;691.97;;;659.88;;
13779;SDS011;6960;53.560;9.950;2022-08-25T14:48:36;661.28;;;631.63;;
13779;SDS011;6960;53.560;9.950;2022-08-25T14:51:04;875.33;;;825.53;;
13779;SDS011;6960;53.560;9.950;2022-08-25T14:53:30;1165.22;;;873.53;;
13779;SDS011;6960;53.560;9.950;2022-08-25T14:55:56;1999.90;;;999.90;;
13779;SDS011;6960;53.560;9.950;2022-08-25T14:58:22;1999.90;;;999.90;;
13779;SDS011;6960;53.560;9.950;2022-08-25T15:00:49;1999.90;;;999.90;;
13779;SDS011;6960;53.560;9.950;2022-08-25T15:03:17;1999.90;;;999.90;;
13779;SDS011;6960;53.560;9.950;2022-08-25T15:05:45;1999.90;;;999.90;;
13779;SDS011;6960;53.560;9.950;2022-08-25T15:08:11;1999.90;;;999.90;;
13779;SDS011;6960;53.560;9.950;2022-08-25T15:10:56;1999.90;;;999.90;;
13779;SDS011;6960;53.560;9.950;2022-08-25T15:13:22;1999.90;;;999.90;;
13779;SDS011;6960;53.560;9.950;2022-08-25T15:15:48;1999.90;;;999.90;;
13779;SDS011;6960;53.560;9.950;2022-08-25T15:18:14;1999.90;;;999.90;;
13779;SDS011;6960;53.560;9.950;2022-08-25T15:20:41;1999.90;;;999.90;;
13779;SDS011;6960;53.560;9.950;2022-08-25T15:23:07;1999.90;;;999.90;;
13779;SDS011;6960;53.560;9.950;2022-08-25T15:25:33;1999.90;;;999.90;;
13779;SDS011;6960;53.560;9.950;2022-08-25T15:28:02;1999.90;;;999.90;;
13779;SDS011;6960;53.560;9.950;2022-08-25T15:30:28;1999.90;;;999.90;;
13779;SDS011;6960;53.560;9.950;2022-08-25T15:32:54;1999.90;;;999.90;;
13779;SDS011;6960;53.560;9.950;2022-08-25T15:35:20;1999.90;;;999.90;;
13779;SDS011;6960;53.560;9.950;2022-08-25T15:37:46;1999.90;;;999.90;;
13779;SDS011;6960;53.560;9.950;2022-08-25T15:40:12;1999.90;;;999.90;;
13779;SDS011;6960;53.560;9.950;2022-08-25T15:42:38;1999.90;;;999.90;;
13779;SDS011;6960;53.560;9.950;2022-08-25T15:45:05;1999.90;;;999.90;;
13779;SDS011;6960;53.560;9.950;2022-08-25T15:47:31;1999.90;;;999.90;;
13779;SDS011;6960;53.560;9.950;2022-08-25T15:50:18;1999.90;;;999.90;;
13779;SDS011;6960;53.560;9.950;2022-08-25T15:52:43;1999.90;;;999.90;;
13779;SDS011;6960;53.560;9.950;2022-08-25T15:55:10;1999.90;;;999.90;;
13779;SDS011;6960;53.560;9.950;2022-08-25T15:57:36;1999.90;;;999.90;;